Time;durP1;ratioP1;P1;durP2;ratioP2;P2;SDS_P1;SDS_P2;PMS_P1;PMS_P2;Temp;Humidity;BMP_temperature;BMP_pressure;BME280_temperature;BME280_humidity;BME280_pressure;Samples;Min_cycle;Max_cycle;Signal;HPM_P1;HPM_P2
2022/03/19 00:00:00;;;;;;;11.8;10.7;;;;;;;8.0;100.0;104120;;;;
2022/03/19 00:01:00;;;;;;;11.8;10.7;;;;;;;7.8;100.0;104120;;;;
2022/03/19 00:02:01;;;;;;;11.8;10.7;;;;;;;7.8;100.0;104120;;;;
2022/03/19 00:03:00;;;;;;;11.8;10.7;;;;;;;7.8;100.0;104130;;;;
2022/03/19 00:04:00;;;;;;;11.8;10.7;;;;;;;7.8;100.0;104130;;;;
2022/03/19 00:05:00;;;;;;;11.8;10.7;;;;;;;7.8;100.0;104130;;;;
2022/03/19 00:06:00;;;;;;;12.4;11.2;;;;;;;7.8;100.0;104130;;;;
2022/03/19 00:07:00;;;;;;;12.4;11.2;;;;;;;7.9;100.0;104130;;;;
2022/03/19 00:08:01;;;;;;;12.4;11.2;;;;;;;7.9;100.0;104130;;;;
2022/03/19 00:09:01;;;;;;;12.4;11.2;;;;;;;7.9;100.0;104130;;;;
2022/03/19 00:10:00;;;;;;;12.4;11.2;;;;;;;7.9;100.0;104130;;;;
2022/03/19 00:11:00;;;;;;;12.4;11.2;;;;;;;7.8;100.0;104130;;;;
2022/03/19 00:12:00;;;;;;;12.4;11.2;;;;;;;7.8;100.0;104130;;;;
2022/03/19 00:13:00;;;;;;;12.4;11.2;;;;;;;7.8;100.0;104120;;;;
2022/03/19 00:14:00;;;;;;;12.4;11.2;;;;;;;7.8;100.0;104120;;;;
2022/03/19 00:15:00;;;;;;;12.4;11.2;;;;;;;7.9;100.0;104130;;;;
2022/03/19 00:16:00;;;;;;;12.4;11.2;;;;;;;7.9;100.0;104130;;;;
2022/03/19 00:17:00;;;;;;;12.4;11.2;;;;;;;8.0;100.0;104130;;;;
2022/03/19 00:18:00;;;;;;;12.4;11.2;;;;;;;8.0;100.0;104130;;;;
2022/03/19 00:19:00;;;;;;;12.4;11.2;;;;;;;7.9;100.0;104130;;;;
2022/03/19 00:20:00;;;;;;;12.4;11.2;;;;;;;7.9;100.0;104130;;;;
2022/03/19 00:21:00;;;;;;;12.4;11.2;;;;;;;7.9;100.0;104130;;;;
2022/03/19 00:22:00;;;;;;;12.4;11.2;;;;;;;7.9;100.0;104130;;;;
2022/03/19 00:23:00;;;;;;;12.4;11.2;;;;;;;7.9;100.0;104130;;;;
2022/03/19 00:24:01;;;;;;;12.4;11.2;;;;;;;7.9;100.0;104130;;;;
2022/03/19 00:25:00;;;;;;;12.4;11.2;;;;;;;7.7;100.0;104130;;;;
2022/03/19 00:26:00;;;;;;;17.1;13.0;;;;;;;7.7;100.0;104130;;;;
2022/03/19 00:27:00;;;;;;;17.1;13.0;;;;;;;7.8;100.0;104120;;;;
2022/03/19 00:28:00;;;;;;;17.1;13.0;;;;;;;7.8;100.0;104120;;;;
2022/03/19 00:29:00;;;;;;;17.1;13.0;;;;;;;7.8;100.0;104120;;;;
2022/03/19 00:30:00;;;;;;;17.1;13.0;;;;;;;7.8;100.0;104120;;;;
2022/03/19 00:31:00;;;;;;;17.1;13.0;;;;;;;7.8;100.0;104120;;;;
2022/03/19 00:32:00;;;;;;;17.1;13.0;;;;;;;7.8;100.0;104120;;;;
2022/03/19 00:33:00;;;;;;;17.1;13.0;;;;;;;7.7;100.0;104120;;;;
2022/03/19 00:34:00;;;;;;;17.1;13.0;;;;;;;7.7;100.0;104120;;;;
2022/03/19 00:35:00;;;;;;;17.1;13.0;;;;;;;7.6;100.0;104120;;;;
2022/03/19 00:36:00;;;;;;;17.1;13.0;;;;;;;7.6;100.0;104120;;;;
2022/03/19 00:37:00;;;;;;;17.1;13.0;;;;;;;7.6;100.0;104120;;;;
2022/03/19 00:38:01;;;;;;;17.1;13.0;;;;;;;7.6;100.0;104120;;;;
2022/03/19 00:39:00;;;;;;;17.1;13.0;;;;;;;7.7;100.0;104120;;;;
2022/03/19 00:40:00;;;;;;;17.1;13.0;;;;;;;7.7;100.0;104120;;;;
2022/03/19 00:41:02;;;;;;;17.1;13.0;;;;;;;7.6;100.0;104120;;;;
2022/03/19 00:42:00;;;;;;;17.1;13.0;;;;;;;7.6;100.0;104120;;;;
2022/03/19 00:43:00;;;;;;;17.1;13.0;;;;;;;7.6;100.0;104120;;;;
2022/03/19 00:44:00;;;;;;;17.1;13.0;;;;;;;7.6;100.0;104120;;;;
2022/03/19 00:45:00;;;;;;;17.1;13.0;;;;;;;7.6;100.0;104120;;;;
2022/03/19 00:46:00;;;;;;;16.2;14.6;;;;;;;7.6;100.0;104120;;;;
2022/03/19 00:47:00;;;;;;;16.2;14.6;;;;;;;7.6;100.0;104120;;;;
2022/03/19 00:48:00;;;;;;;16.2;14.6;;;;;;;7.6;100.0;104120;;;;
2022/03/19 00:49:00;;;;;;;16.2;14.6;;;;;;;7.6;100.0;104120;;;;
2022/03/19 00:50:00;;;;;;;16.2;14.6;;;;;;;7.6;100.0;104120;;;;
2022/03/19 00:51:00;;;;;;;16.2;14.6;;;;;;;7.6;100.0;104120;;;;
2022/03/19 00:52:00;;;;;;;16.2;14.6;;;;;;;7.6;100.0;104120;;;;
2022/03/19 00:53:00;;;;;;;16.2;14.6;;;;;;;7.5;100.0;104120;;;;
2022/03/19 00:54:00;;;;;;;16.2;14.6;;;;;;;7.5;100.0;104120;;;;
2022/03/19 00:55:00;;;;;;;16.2;14.6;;;;;;;7.5;100.0;104120;;;;
2022/03/19 00:56:00;;;;;;;16.2;14.6;;;;;;;7.5;100.0;104120;;;;
2022/03/19 00:57:00;;;;;;;16.2;14.6;;;;;;;7.6;100.0;104120;;;;
2022/03/19 00:58:00;;;;;;;16.2;14.6;;;;;;;7.6;100.0;104120;;;;
2022/03/19 00:59:00;;;;;;;16.2;14.6;;;;;;;7.5;100.0;104120;;;;
2022/03/19 01:00:00;;;;;;;16.2;14.6;;;;;;;7.5;100.0;104120;;;;
2022/03/19 01:01:00;;;;;;;16.2;14.6;;;;;;;7.4;100.0;104110;;;;
2022/03/19 01:02:00;;;;;;;16.2;14.6;;;;;;;7.4;100.0;104110;;;;
2022/03/19 01:03:00;;;;;;;16.2;14.6;;;;;;;7.6;100.0;104110;;;;
2022/03/19 01:04:00;;;;;;;16.2;14.6;;;;;;;7.6;100.0;104110;;;;
2022/03/19 01:05:00;;;;;;;16.2;14.6;;;;;;;7.4;100.0;104120;;;;
2022/03/19 01:06:00;;;;;;;17.6;14.9;;;;;;;7.4;100.0;104120;;;;
2022/03/19 01:07:00;;;;;;;17.6;14.9;;;;;;;7.5;100.0;104120;;;;
2022/03/19 01:08:00;;;;;;;17.6;14.9;;;;;;;7.5;100.0;104120;;;;
2022/03/19 01:09:00;;;;;;;17.6;14.9;;;;;;;7.5;100.0;104120;;;;
2022/03/19 01:10:00;;;;;;;17.6;14.9;;;;;;;7.5;100.0;104120;;;;
2022/03/19 01:11:00;;;;;;;17.6;14.9;;;;;;;7.4;100.0;104120;;;;
2022/03/19 01:12:00;;;;;;;17.6;14.9;;;;;;;7.4;100.0;104120;;;;
2022/03/19 01:13:02;;;;;;;17.6;14.9;;;;;;;7.3;100.0;104110;;;;
2022/03/19 01:14:00;;;;;;;17.6;14.9;;;;;;;7.3;100.0;104110;;;;
2022/03/19 01:15:00;;;;;;;17.6;14.9;;;;;;;7.4;100.0;104120;;;;
2022/03/19 01:16:01;;;;;;;17.6;14.9;;;;;;;7.4;100.0;104120;;;;
2022/03/19 01:17:00;;;;;;;17.6;14.9;;;;;;;7.3;100.0;104110;;;;
2022/03/19 01:18:00;;;;;;;17.6;14.9;;;;;;;7.3;100.0;104110;;;;
2022/03/19 01:19:00;;;;;;;17.6;14.9;;;;;;;7.4;100.0;104110;;;;
2022/03/19 01:20:01;;;;;;;17.6;14.9;;;;;;;7.4;100.0;104110;;;;
2022/03/19 01:21:00;;;;;;;17.6;14.9;;;;;;;7.3;100.0;104110;;;;
2022/03/19 01:22:00;;;;;;;17.6;14.9;;;;;;;7.3;100.0;104110;;;;
2022/03/19 01:23:00;;;;;;;17.6;14.9;;;;;;;7.2;100.0;104110;;;;
2022/03/19 01:24:00;;;;;;;17.6;14.9;;;;;;;7.2;100.0;104110;;;;
2022/03/19 01:25:04;;;;;;;17.6;14.9;;;;;;;7.2;100.0;104100;;;;
2022/03/19 01:26:00;;;;;;;15.5;13.9;;;;;;;7.2;100.0;104100;;;;
2022/03/19 01:27:00;;;;;;;15.5;13.9;;;;;;;7.2;100.0;104110;;;;
2022/03/19 01:28:00;;;;;;;15.5;13.9;;;;;;;7.2;100.0;104110;;;;
2022/03/19 01:29:00;;;;;;;15.5;13.9;;;;;;;7.1;100.0;104110;;;;
2022/03/19 01:30:00;;;;;;;15.5;13.9;;;;;;;7.1;100.0;104110;;;;
2022/03/19 01:31:00;;;;;;;15.5;13.9;;;;;;;7.1;100.0;104110;;;;
2022/03/19 01:32:00;;;;;;;15.5;13.9;;;;;;;7.1;100.0;104110;;;;
2022/03/19 01:33:00;;;;;;;15.5;13.9;;;;;;;7.1;100.0;104110;;;;
2022/03/19 01:34:00;;;;;;;15.5;13.9;;;;;;;7.1;100.0;104110;;;;
2022/03/19 01:35:00;;;;;;;15.5;13.9;;;;;;;7.0;100.0;104110;;;;
2022/03/19 01:36:00;;;;;;;15.5;13.9;;;;;;;7.0;100.0;104110;;;;
2022/03/19 01:37:00;;;;;;;15.5;13.9;;;;;;;7.1;100.0;104110;;;;
2022/03/19 01:38:00;;;;;;;15.5;13.9;;;;;;;7.1;100.0;104110;;;;
2022/03/19 01:39:00;;;;;;;15.5;13.9;;;;;;;7.0;100.0;104110;;;;
2022/03/19 01:40:00;;;;;;;15.5;13.9;;;;;;;7.0;100.0;104110;;;;
2022/03/19 01:41:00;;;;;;;15.5;13.9;;;;;;;7.1;100.0;104100;;;;
2022/03/19 01:42:02;;;;;;;15.5;13.9;;;;;;;7.1;100.0;104100;;;;
2022/03/19 01:43:00;;;;;;;15.5;13.9;;;;;;;7.0;100.0;104110;;;;
2022/03/19 01:44:00;;;;;;;15.5;13.9;;;;;;;7.0;100.0;104110;;;;
2022/03/19 01:45:01;;;;;;;15.5;13.9;;;;;;;7.1;100.0;104110;;;;
2022/03/19 01:46:00;;;;;;;16.1;14.4;;;;;;;7.1;100.0;104110;;;;
2022/03/19 01:47:02;;;;;;;16.1;14.4;;;;;;;7.1;100.0;104100;;;;
2022/03/19 01:48:00;;;;;;;16.1;14.4;;;;;;;7.1;100.0;104100;;;;
2022/03/19 01:49:00;;;;;;;16.1;14.4;;;;;;;7.1;100.0;104110;;;;
2022/03/19 01:50:00;;;;;;;16.1;14.4;;;;;;;7.1;100.0;104110;;;;
2022/03/19 01:51:00;;;;;;;16.1;14.4;;;;;;;7.0;100.0;104100;;;;
2022/03/19 01:52:00;;;;;;;16.1;14.4;;;;;;;7.0;100.0;104100;;;;
2022/03/19 01:53:00;;;;;;;16.1;14.4;;;;;;;7.1;100.0;104100;;;;
2022/03/19 01:54:00;;;;;;;16.1;14.4;;;;;;;7.1;100.0;104100;;;;
2022/03/19 01:55:00;;;;;;;16.1;14.4;;;;;;;7.0;100.0;104110;;;;
2022/03/19 01:56:00;;;;;;;16.1;14.4;;;;;;;7.0;100.0;104110;;;;
2022/03/19 01:57:01;;;;;;;16.1;14.4;;;;;;;6.9;100.0;104110;;;;
2022/03/19 01:58:00;;;;;;;16.1;14.4;;;;;;;6.9;100.0;104110;;;;
2022/03/19 01:59:00;;;;;;;16.1;14.4;;;;;;;6.9;100.0;104110;;;;
2022/03/19 02:00:00;;;;;;;16.1;14.4;;;;;;;6.9;100.0;104110;;;;
2022/03/19 02:01:01;;;;;;;16.1;14.4;;;;;;;6.9;100.0;104100;;;;
2022/03/19 02:02:02;;;;;;;16.1;14.4;;;;;;;6.9;100.0;104100;;;;
2022/03/19 02:03:00;;;;;;;16.1;14.4;;;;;;;7.0;100.0;104100;;;;
2022/03/19 02:04:00;;;;;;;16.1;14.4;;;;;;;7.0;100.0;104100;;;;
2022/03/19 02:05:03;;;;;;;16.1;14.4;;;;;;;6.8;100.0;104100;;;;
2022/03/19 02:06:01;;;;;;;17.2;13.7;;;;;;;6.8;100.0;104100;;;;
2022/03/19 02:07:01;;;;;;;17.2;13.7;;;;;;;7.0;100.0;104100;;;;
2022/03/19 02:08:00;;;;;;;17.2;13.7;;;;;;;7.0;100.0;104100;;;;
2022/03/19 02:09:00;;;;;;;17.2;13.7;;;;;;;6.9;100.0;104100;;;;
2022/03/19 02:10:00;;;;;;;17.2;13.7;;;;;;;6.9;100.0;104100;;;;
2022/03/19 02:11:00;;;;;;;17.2;13.7;;;;;;;6.8;100.0;104100;;;;
2022/03/19 02:12:00;;;;;;;17.2;13.7;;;;;;;6.8;100.0;104100;;;;
2022/03/19 02:13:00;;;;;;;17.2;13.7;;;;;;;6.7;100.0;104090;;;;
2022/03/19 02:14:00;;;;;;;17.2;13.7;;;;;;;6.7;100.0;104090;;;;
2022/03/19 02:15:00;;;;;;;17.2;13.7;;;;;;;6.8;100.0;104090;;;;
2022/03/19 02:16:00;;;;;;;17.2;13.7;;;;;;;6.8;100.0;104090;;;;
2022/03/19 02:17:01;;;;;;;17.2;13.7;;;;;;;6.7;100.0;104090;;;;
2022/03/19 02:18:00;;;;;;;17.2;13.7;;;;;;;6.7;100.0;104090;;;;
2022/03/19 02:19:00;;;;;;;17.2;13.7;;;;;;;6.7;100.0;104090;;;;
2022/03/19 02:20:01;;;;;;;17.2;13.7;;;;;;;6.7;100.0;104090;;;;
2022/03/19 02:21:01;;;;;;;17.2;13.7;;;;;;;6.7;100.0;104090;;;;
2022/03/19 02:22:00;;;;;;;17.2;13.7;;;;;;;6.7;100.0;104090;;;;
2022/03/19 02:26:00;;;;;;;17.7;14.8;;;;;;;6.7;100.0;104080;;;;
2022/03/19 02:27:01;;;;;;;17.7;14.8;;;;;;;6.7;100.0;104080;;;;
2022/03/19 02:28:00;;;;;;;17.7;14.8;;;;;;;6.7;100.0;104080;;;;
2022/03/19 02:29:00;;;;;;;17.7;14.8;;;;;;;6.6;100.0;104080;;;;
2022/03/19 02:30:00;;;;;;;17.7;14.8;;;;;;;6.6;100.0;104080;;;;
2022/03/19 02:31:00;;;;;;;17.7;14.8;;;;;;;6.6;100.0;104080;;;;
2022/03/19 02:32:03;;;;;;;17.7;14.8;;;;;;;6.6;100.0;104080;;;;
2022/03/19 02:33:00;;;;;;;17.7;14.8;;;;;;;6.5;100.0;104080;;;;
2022/03/19 02:34:00;;;;;;;17.7;14.8;;;;;;;6.5;100.0;104080;;;;
2022/03/19 02:35:00;;;;;;;17.7;14.8;;;;;;;6.5;100.0;104070;;;;
2022/03/19 02:36:00;;;;;;;17.7;14.8;;;;;;;6.5;100.0;104070;;;;
2022/03/19 02:37:06;;;;;;;17.7;14.8;;;;;;;6.5;100.0;104070;;;;
2022/03/19 02:38:00;;;;;;;17.7;14.8;;;;;;;6.5;100.0;104070;;;;
2022/03/19 02:39:00;;;;;;;17.7;14.8;;;;;;;6.4;100.0;104070;;;;
2022/03/19 02:40:00;;;;;;;17.7;14.8;;;;;;;6.4;100.0;104070;;;;
2022/03/19 02:41:03;;;;;;;17.7;14.8;;;;;;;6.4;100.0;104070;;;;
2022/03/19 02:42:01;;;;;;;17.7;14.8;;;;;;;6.4;100.0;104070;;;;
2022/03/19 02:43:00;;;;;;;17.7;14.8;;;;;;;6.4;100.0;104070;;;;
2022/03/19 02:44:00;;;;;;;17.7;14.8;;;;;;;6.4;100.0;104070;;;;
2022/03/19 02:45:00;;;;;;;17.7;14.8;;;;;;;6.3;100.0;104070;;;;
2022/03/19 02:46:00;;;;;;;18.7;14.6;;;;;;;6.3;100.0;104070;;;;
2022/03/19 02:47:01;;;;;;;18.7;14.6;;;;;;;6.3;100.0;104080;;;;
2022/03/19 02:48:01;;;;;;;18.7;14.6;;;;;;;6.3;100.0;104080;;;;
2022/03/19 02:49:00;;;;;;;18.7;14.6;;;;;;;6.2;100.0;104070;;;;
2022/03/19 02:50:00;;;;;;;18.7;14.6;;;;;;;6.2;100.0;104070;;;;
2022/03/19 02:51:00;;;;;;;18.7;14.6;;;;;;;6.2;100.0;104080;;;;
2022/03/19 02:52:00;;;;;;;18.7;14.6;;;;;;;6.2;100.0;104080;;;;
2022/03/19 02:53:01;;;;;;;18.7;14.6;;;;;;;6.2;100.0;104070;;;;
2022/03/19 02:54:01;;;;;;;18.7;14.6;;;;;;;6.2;100.0;104070;;;;
2022/03/19 02:55:00;;;;;;;18.7;14.6;;;;;;;6.1;100.0;104070;;;;
2022/03/19 02:56:00;;;;;;;18.7;14.6;;;;;;;6.1;100.0;104070;;;;
2022/03/19 02:57:00;;;;;;;18.7;14.6;;;;;;;6.2;100.0;104070;;;;
2022/03/19 02:58:00;;;;;;;18.7;14.6;;;;;;;6.2;100.0;104070;;;;
2022/03/19 02:59:08;;;;;;;18.7;14.6;;;;;;;6.0;100.0;104080;;;;
2022/03/19 03:00:00;;;;;;;18.7;14.6;;;;;;;6.0;100.0;104080;;;;
2022/03/19 03:01:00;;;;;;;18.7;14.6;;;;;;;6.1;100.0;104070;;;;
2022/03/19 03:02:02;;;;;;;18.7;14.6;;;;;;;6.1;100.0;104070;;;;
2022/03/19 03:03:00;;;;;;;18.7;14.6;;;;;;;6.0;100.0;104070;;;;
2022/03/19 03:04:00;;;;;;;18.7;14.6;;;;;;;6.0;100.0;104070;;;;
2022/03/19 03:05:00;;;;;;;18.7;14.6;;;;;;;6.1;100.0;104070;;;;
2022/03/19 03:06:00;;;;;;;18.3;14.9;;;;;;;6.1;100.0;104070;;;;
2022/03/19 03:07:01;;;;;;;18.3;14.9;;;;;;;6.1;100.0;104060;;;;
2022/03/19 03:08:00;;;;;;;18.3;14.9;;;;;;;6.1;100.0;104060;;;;
2022/03/19 03:09:00;;;;;;;18.3;14.9;;;;;;;6.1;100.0;104060;;;;
2022/03/19 03:10:00;;;;;;;18.3;14.9;;;;;;;6.1;100.0;104060;;;;
2022/03/19 03:11:00;;;;;;;18.3;14.9;;;;;;;6.1;100.0;104060;;;;
2022/03/19 03:12:01;;;;;;;18.3;14.9;;;;;;;6.1;100.0;104060;;;;
2022/03/19 03:13:00;;;;;;;18.3;14.9;;;;;;;6.1;100.0;104060;;;;
2022/03/19 03:14:00;;;;;;;18.3;14.9;;;;;;;6.1;100.0;104060;;;;
2022/03/19 03:15:00;;;;;;;18.3;14.9;;;;;;;6.1;100.0;104060;;;;
2022/03/19 03:16:00;;;;;;;18.3;14.9;;;;;;;6.1;100.0;104060;;;;
2022/03/19 03:17:01;;;;;;;18.3;14.9;;;;;;;6.0;100.0;104060;;;;
2022/03/19 03:18:01;;;;;;;18.3;14.9;;;;;;;6.0;100.0;104060;;;;
2022/03/19 03:19:01;;;;;;;18.3;14.9;;;;;;;6.0;100.0;104060;;;;
2022/03/19 03:20:01;;;;;;;18.3;14.9;;;;;;;6.0;100.0;104060;;;;
2022/03/19 03:21:00;;;;;;;18.3;14.9;;;;;;;6.0;100.0;104050;;;;
2022/03/19 03:22:00;;;;;;;18.3;14.9;;;;;;;6.0;100.0;104050;;;;
2022/03/19 03:23:00;;;;;;;18.3;14.9;;;;;;;6.0;100.0;104060;;;;
2022/03/19 03:24:00;;;;;;;18.3;14.9;;;;;;;6.0;100.0;104060;;;;
2022/03/19 03:25:00;;;;;;;18.3;14.9;;;;;;;5.9;100.0;104060;;;;
2022/03/19 03:26:00;;;;;;;18.6;14.4;;;;;;;5.9;100.0;104060;;;;
2022/03/19 03:27:00;;;;;;;18.6;14.4;;;;;;;5.9;100.0;104050;;;;
2022/03/19 03:28:00;;;;;;;18.6;14.4;;;;;;;5.9;100.0;104050;;;;
2022/03/19 03:29:00;;;;;;;18.6;14.4;;;;;;;6.0;100.0;104060;;;;
2022/03/19 03:30:00;;;;;;;18.6;14.4;;;;;;;6.0;100.0;104060;;;;
2022/03/19 03:31:00;;;;;;;18.6;14.4;;;;;;;5.8;100.0;104050;;;;
2022/03/19 03:32:00;;;;;;;18.6;14.4;;;;;;;5.8;100.0;104050;;;;
2022/03/19 03:33:00;;;;;;;18.6;14.4;;;;;;;5.8;100.0;104060;;;;
2022/03/19 03:34:00;;;;;;;18.6;14.4;;;;;;;5.8;100.0;104060;;;;
2022/03/19 03:35:00;;;;;;;18.6;14.4;;;;;;;5.9;100.0;104050;;;;
2022/03/19 03:36:00;;;;;;;18.6;14.4;;;;;;;5.9;100.0;104050;;;;
2022/03/19 03:37:00;;;;;;;18.6;14.4;;;;;;;5.8;100.0;104050;;;;
2022/03/19 03:38:00;;;;;;;18.6;14.4;;;;;;;5.8;100.0;104050;;;;
2022/03/19 03:39:00;;;;;;;18.6;14.4;;;;;;;5.9;100.0;104060;;;;
2022/03/19 03:40:00;;;;;;;18.6;14.4;;;;;;;5.9;100.0;104060;;;;
2022/03/19 03:41:00;;;;;;;18.6;14.4;;;;;;;5.9;100.0;104050;;;;
2022/03/19 03:42:00;;;;;;;18.6;14.4;;;;;;;5.9;100.0;104050;;;;
2022/03/19 03:43:00;;;;;;;18.6;14.4;;;;;;;6.0;100.0;104050;;;;
2022/03/19 03:44:00;;;;;;;18.6;14.4;;;;;;;6.0;100.0;104050;;;;
2022/03/19 03:45:00;;;;;;;18.6;14.4;;;;;;;5.9;100.0;104060;;;;
2022/03/19 03:46:00;;;;;;;20.3;15.1;;;;;;;5.9;100.0;104060;;;;
2022/03/19 03:47:00;;;;;;;20.3;15.1;;;;;;;6.0;100.0;104060;;;;
2022/03/19 03:48:00;;;;;;;20.3;15.1;;;;;;;6.0;100.0;104060;;;;
2022/03/19 03:49:00;;;;;;;20.3;15.1;;;;;;;5.9;100.0;104050;;;;
2022/03/19 03:50:00;;;;;;;20.3;15.1;;;;;;;5.9;100.0;104050;;;;
2022/03/19 03:51:00;;;;;;;20.3;15.1;;;;;;;5.9;100.0;104050;;;;
2022/03/19 03:52:00;;;;;;;20.3;15.1;;;;;;;5.9;100.0;104050;;;;
2022/03/19 03:53:01;;;;;;;20.3;15.1;;;;;;;5.9;100.0;104040;;;;
2022/03/19 03:54:00;;;;;;;20.3;15.1;;;;;;;5.9;100.0;104040;;;;
2022/03/19 03:55:00;;;;;;;20.3;15.1;;;;;;;5.8;100.0;104040;;;;
2022/03/19 03:56:00;;;;;;;20.3;15.1;;;;;;;5.8;100.0;104040;;;;
2022/03/19 03:57:00;;;;;;;20.3;15.1;;;;;;;5.8;100.0;104040;;;;
2022/03/19 03:58:01;;;;;;;20.3;15.1;;;;;;;5.8;100.0;104040;;;;
2022/03/19 03:59:00;;;;;;;20.3;15.1;;;;;;;5.9;100.0;104030;;;;
2022/03/19 04:00:00;;;;;;;20.3;15.1;;;;;;;5.9;100.0;104030;;;;
2022/03/19 04:01:00;;;;;;;20.3;15.1;;;;;;;5.9;100.0;104030;;;;
2022/03/19 04:02:00;;;;;;;20.3;15.1;;;;;;;5.9;100.0;104030;;;;
2022/03/19 04:03:00;;;;;;;20.3;15.1;;;;;;;5.8;100.0;104030;;;;
2022/03/19 04:04:00;;;;;;;20.3;15.1;;;;;;;5.8;100.0;104030;;;;
2022/03/19 04:05:00;;;;;;;20.3;15.1;;;;;;;5.9;100.0;104030;;;;
2022/03/19 04:06:00;;;;;;;17.7;14.8;;;;;;;5.9;100.0;104030;;;;
2022/03/19 04:07:00;;;;;;;17.7;14.8;;;;;;;5.8;100.0;104030;;;;
2022/03/19 04:08:00;;;;;;;17.7;14.8;;;;;;;5.8;100.0;104030;;;;
2022/03/19 04:09:00;;;;;;;17.7;14.8;;;;;;;5.8;100.0;104030;;;;
2022/03/19 04:10:00;;;;;;;17.7;14.8;;;;;;;5.8;100.0;104030;;;;
2022/03/19 04:11:00;;;;;;;17.7;14.8;;;;;;;5.8;100.0;104030;;;;
2022/03/19 04:12:03;;;;;;;17.7;14.8;;;;;;;5.8;100.0;104030;;;;
2022/03/19 04:13:00;;;;;;;17.7;14.8;;;;;;;5.9;100.0;104030;;;;
2022/03/19 04:14:00;;;;;;;17.7;14.8;;;;;;;5.9;100.0;104030;;;;
2022/03/19 04:15:00;;;;;;;17.7;14.8;;;;;;;5.8;100.0;104030;;;;
2022/03/19 04:16:00;;;;;;;17.7;14.8;;;;;;;5.8;100.0;104030;;;;
2022/03/19 04:17:00;;;;;;;17.7;14.8;;;;;;;5.8;100.0;104030;;;;
2022/03/19 04:18:01;;;;;;;17.7;14.8;;;;;;;5.8;100.0;104030;;;;
2022/03/19 04:19:00;;;;;;;17.7;14.8;;;;;;;5.8;100.0;104030;;;;
2022/03/19 04:20:00;;;;;;;17.7;14.8;;;;;;;5.8;100.0;104030;;;;
2022/03/19 04:21:00;;;;;;;17.7;14.8;;;;;;;5.8;100.0;104040;;;;
2022/03/19 04:22:00;;;;;;;17.7;14.8;;;;;;;5.8;100.0;104040;;;;
2022/03/19 04:23:00;;;;;;;17.7;14.8;;;;;;;5.7;100.0;104030;;;;
2022/03/19 04:24:00;;;;;;;17.7;14.8;;;;;;;5.7;100.0;104030;;;;
2022/03/19 04:25:00;;;;;;;21.8;15.2;;;;;;;5.8;100.0;104030;;;;
2022/03/19 04:26:00;;;;;;;21.8;15.2;;;;;;;5.8;100.0;104030;;;;
2022/03/19 04:27:00;;;;;;;21.8;15.2;;;;;;;5.7;100.0;104030;;;;
2022/03/19 04:28:01;;;;;;;21.8;15.2;;;;;;;5.7;100.0;104030;;;;
2022/03/19 04:29:00;;;;;;;21.8;15.2;;;;;;;5.7;100.0;104030;;;;
2022/03/19 04:30:02;;;;;;;21.8;15.2;;;;;;;5.7;100.0;104030;;;;
2022/03/19 04:31:00;;;;;;;21.8;15.2;;;;;;;5.6;100.0;104030;;;;
2022/03/19 04:32:00;;;;;;;21.8;15.2;;;;;;;5.6;100.0;104030;;;;
2022/03/19 04:33:01;;;;;;;21.8;15.2;;;;;;;5.6;100.0;104030;;;;
2022/03/19 04:34:00;;;;;;;21.8;15.2;;;;;;;5.6;100.0;104030;;;;
2022/03/19 04:36:29;;;;;;;21.8;15.2;;;;;;;5.6;100.0;104020;;;;
2022/03/19 04:37:00;;;;;;;21.8;15.2;;;;;;;5.7;100.0;104020;;;;
2022/03/19 04:38:04;;;;;;;21.8;15.2;;;;;;;5.7;100.0;104020;;;;
2022/03/19 04:39:02;;;;;;;21.8;15.2;;;;;;;5.6;100.0;104020;;;;
2022/03/19 04:40:00;;;;;;;21.8;15.2;;;;;;;5.6;100.0;104020;;;;
2022/03/19 04:41:00;;;;;;;21.8;15.2;;;;;;;5.6;100.0;104020;;;;
2022/03/19 04:42:00;;;;;;;21.8;15.2;;;;;;;5.6;100.0;104020;;;;
2022/03/19 04:43:00;;;;;;;21.8;15.2;;;;;;;5.6;100.0;104030;;;;
2022/03/19 04:44:00;;;;;;;21.8;15.2;;;;;;;5.6;100.0;104030;;;;
2022/03/19 04:45:00;;;;;;;20.4;15.1;;;;;;;5.6;100.0;104020;;;;
2022/03/19 04:46:00;;;;;;;20.4;15.1;;;;;;;5.6;100.0;104020;;;;
2022/03/19 04:47:00;;;;;;;20.4;15.1;;;;;;;5.6;100.0;104020;;;;
2022/03/19 04:48:00;;;;;;;20.4;15.1;;;;;;;5.6;100.0;104020;;;;
2022/03/19 04:49:00;;;;;;;20.4;15.1;;;;;;;5.5;100.0;104020;;;;
2022/03/19 04:50:00;;;;;;;20.4;15.1;;;;;;;5.5;100.0;104020;;;;
2022/03/19 04:51:00;;;;;;;20.4;15.1;;;;;;;5.6;100.0;104020;;;;
2022/03/19 04:52:00;;;;;;;20.4;15.1;;;;;;;5.6;100.0;104020;;;;
2022/03/19 04:53:00;;;;;;;20.4;15.1;;;;;;;5.5;100.0;104020;;;;
2022/03/19 04:54:00;;;;;;;20.4;15.1;;;;;;;5.5;100.0;104020;;;;
2022/03/19 04:55:00;;;;;;;20.4;15.1;;;;;;;5.6;100.0;104020;;;;
2022/03/19 04:56:00;;;;;;;20.4;15.1;;;;;;;5.6;100.0;104020;;;;
2022/03/19 04:57:02;;;;;;;20.4;15.1;;;;;;;5.5;100.0;104020;;;;
2022/03/19 04:58:01;;;;;;;20.4;15.1;;;;;;;5.5;100.0;104020;;;;
2022/03/19 04:59:00;;;;;;;20.4;15.1;;;;;;;5.5;100.0;104020;;;;
2022/03/19 05:00:00;;;;;;;20.4;15.1;;;;;;;5.5;100.0;104020;;;;
2022/03/19 05:01:00;;;;;;;20.4;15.1;;;;;;;5.4;100.0;104020;;;;
2022/03/19 05:02:00;;;;;;;20.4;15.1;;;;;;;5.4;100.0;104020;;;;
2022/03/19 05:03:00;;;;;;;20.4;15.1;;;;;;;5.4;100.0;104020;;;;
2022/03/19 05:04:00;;;;;;;20.4;15.1;;;;;;;5.4;100.0;104020;;;;
2022/03/19 05:05:00;;;;;;;18.6;14.8;;;;;;;5.5;100.0;104020;;;;
2022/03/19 05:06:00;;;;;;;18.6;14.8;;;;;;;5.5;100.0;104020;;;;
2022/03/19 05:07:00;;;;;;;18.6;14.8;;;;;;;5.4;100.0;104020;;;;
2022/03/19 05:08:00;;;;;;;18.6;14.8;;;;;;;5.4;100.0;104020;;;;
2022/03/19 05:12:00;;;;;;;18.6;14.8;;;;;;;5.4;100.0;104030;;;;
2022/03/19 05:13:00;;;;;;;18.6;14.8;;;;;;;5.3;100.0;104030;;;;
2022/03/19 05:14:00;;;;;;;18.6;14.8;;;;;;;5.3;100.0;104030;;;;
2022/03/19 05:15:00;;;;;;;18.6;14.8;;;;;;;5.3;100.0;104030;;;;
2022/03/19 05:16:01;;;;;;;18.6;14.8;;;;;;;5.3;100.0;104030;;;;
2022/03/19 05:17:00;;;;;;;18.6;14.8;;;;;;;5.3;100.0;104030;;;;
2022/03/19 05:18:00;;;;;;;18.6;14.8;;;;;;;5.3;100.0;104030;;;;
2022/03/19 05:19:00;;;;;;;18.6;14.8;;;;;;;5.3;100.0;104030;;;;
2022/03/19 05:20:00;;;;;;;18.6;14.8;;;;;;;5.3;100.0;104030;;;;
2022/03/19 05:21:00;;;;;;;18.6;14.8;;;;;;;5.3;100.0;104030;;;;
2022/03/19 05:22:00;;;;;;;18.6;14.8;;;;;;;5.3;100.0;104030;;;;
2022/03/19 05:23:00;;;;;;;18.6;14.8;;;;;;;5.2;100.0;104040;;;;
2022/03/19 05:24:00;;;;;;;18.6;14.8;;;;;;;5.2;100.0;104040;;;;
2022/03/19 05:25:00;;;;;;;20.4;16.3;;;;;;;5.2;100.0;104040;;;;
2022/03/19 05:26:00;;;;;;;20.4;16.3;;;;;;;5.2;100.0;104040;;;;
2022/03/19 05:27:00;;;;;;;20.4;16.3;;;;;;;5.2;100.0;104040;;;;
2022/03/19 05:28:00;;;;;;;20.4;16.3;;;;;;;5.2;100.0;104040;;;;
2022/03/19 05:29:11;;;;;;;20.4;16.3;;;;;;;5.1;100.0;104030;;;;
2022/03/19 05:30:00;;;;;;;20.4;16.3;;;;;;;5.1;100.0;104030;;;;
2022/03/19 05:31:01;;;;;;;20.4;16.3;;;;;;;5.1;100.0;104030;;;;
2022/03/19 05:32:00;;;;;;;20.4;16.3;;;;;;;5.1;100.0;104030;;;;
2022/03/19 05:33:00;;;;;;;20.4;16.3;;;;;;;5.1;100.0;104030;;;;
2022/03/19 05:35:00;;;;;;;20.4;16.3;;;;;;;5.2;100.0;104040;;;;
2022/03/19 05:36:00;;;;;;;20.4;16.3;;;;;;;5.2;100.0;104040;;;;
2022/03/19 05:37:01;;;;;;;20.4;16.3;;;;;;;5.1;100.0;104040;;;;
2022/03/19 05:38:00;;;;;;;20.4;16.3;;;;;;;5.1;100.0;104040;;;;
2022/03/19 05:39:00;;;;;;;20.4;16.3;;;;;;;5.1;100.0;104040;;;;
2022/03/19 05:40:01;;;;;;;20.4;16.3;;;;;;;5.1;100.0;104040;;;;
2022/03/19 05:41:00;;;;;;;20.4;16.3;;;;;;;5.1;100.0;104040;;;;
2022/03/19 05:42:00;;;;;;;20.4;16.3;;;;;;;5.1;100.0;104040;;;;
2022/03/19 05:43:00;;;;;;;20.4;16.3;;;;;;;5.1;100.0;104040;;;;
2022/03/19 05:44:00;;;;;;;20.4;16.3;;;;;;;5.1;100.0;104040;;;;
2022/03/19 05:45:00;;;;;;;19.3;17.2;;;;;;;5.0;100.0;104040;;;;
2022/03/19 05:46:00;;;;;;;19.3;17.2;;;;;;;5.0;100.0;104040;;;;
2022/03/19 05:47:00;;;;;;;19.3;17.2;;;;;;;5.1;100.0;104040;;;;
2022/03/19 05:48:01;;;;;;;19.3;17.2;;;;;;;5.1;100.0;104040;;;;
2022/03/19 05:49:00;;;;;;;19.3;17.2;;;;;;;5.0;100.0;104040;;;;
2022/03/19 05:50:00;;;;;;;19.3;17.2;;;;;;;5.0;100.0;104040;;;;
2022/03/19 05:51:01;;;;;;;19.3;17.2;;;;;;;5.1;100.0;104040;;;;
2022/03/19 05:52:00;;;;;;;19.3;17.2;;;;;;;5.1;100.0;104040;;;;
2022/03/19 05:53:00;;;;;;;19.3;17.2;;;;;;;5.1;100.0;104050;;;;
2022/03/19 05:54:00;;;;;;;19.3;17.2;;;;;;;5.1;100.0;104050;;;;
2022/03/19 05:55:00;;;;;;;19.3;17.2;;;;;;;5.2;100.0;104040;;;;
2022/03/19 05:56:00;;;;;;;19.3;17.2;;;;;;;5.2;100.0;104040;;;;
2022/03/19 05:57:00;;;;;;;19.3;17.2;;;;;;;5.1;100.0;104040;;;;
2022/03/19 05:58:00;;;;;;;19.3;17.2;;;;;;;5.1;100.0;104040;;;;
2022/03/19 05:59:00;;;;;;;19.3;17.2;;;;;;;5.0;100.0;104050;;;;
2022/03/19 06:00:00;;;;;;;19.3;17.2;;;;;;;5.0;100.0;104050;;;;
2022/03/19 06:01:00;;;;;;;19.3;17.2;;;;;;;4.9;100.0;104040;;;;
2022/03/19 06:02:00;;;;;;;19.3;17.2;;;;;;;4.9;100.0;104040;;;;
2022/03/19 06:03:00;;;;;;;19.3;17.2;;;;;;;5.0;100.0;104050;;;;
2022/03/19 06:04:00;;;;;;;19.3;17.2;;;;;;;5.0;100.0;104050;;;;
2022/03/19 06:05:00;;;;;;;22.1;17.3;;;;;;;5.0;100.0;104050;;;;
2022/03/19 06:06:00;;;;;;;22.1;17.3;;;;;;;5.0;100.0;104050;;;;
2022/03/19 06:07:00;;;;;;;22.1;17.3;;;;;;;5.0;100.0;104040;;;;
2022/03/19 06:08:01;;;;;;;22.1;17.3;;;;;;;5.0;100.0;104040;;;;
2022/03/19 06:09:00;;;;;;;22.1;17.3;;;;;;;5.0;100.0;104040;;;;
2022/03/19 06:10:00;;;;;;;22.1;17.3;;;;;;;5.0;100.0;104040;;;;
2022/03/19 06:11:00;;;;;;;22.1;17.3;;;;;;;5.1;100.0;104040;;;;
2022/03/19 06:12:00;;;;;;;22.1;17.3;;;;;;;5.1;100.0;104040;;;;
2022/03/19 06:13:00;;;;;;;22.1;17.3;;;;;;;5.1;100.0;104040;;;;
2022/03/19 06:14:00;;;;;;;22.1;17.3;;;;;;;5.1;100.0;104040;;;;
2022/03/19 06:15:00;;;;;;;22.1;17.3;;;;;;;5.1;100.0;104040;;;;
2022/03/19 06:16:00;;;;;;;22.1;17.3;;;;;;;5.1;100.0;104040;;;;
2022/03/19 06:17:00;;;;;;;22.1;17.3;;;;;;;5.1;100.0;104040;;;;
2022/03/19 06:18:00;;;;;;;22.1;17.3;;;;;;;5.1;100.0;104040;;;;
2022/03/19 06:19:00;;;;;;;22.1;17.3;;;;;;;5.1;100.0;104040;;;;
2022/03/19 06:20:00;;;;;;;22.1;17.3;;;;;;;5.1;100.0;104040;;;;
2022/03/19 06:21:00;;;;;;;22.1;17.3;;;;;;;5.1;100.0;104050;;;;
2022/03/19 06:22:00;;;;;;;22.1;17.3;;;;;;;5.1;100.0;104050;;;;
2022/03/19 06:23:00;;;;;;;22.1;17.3;;;;;;;5.1;100.0;104040;;;;
2022/03/19 06:24:00;;;;;;;22.1;17.3;;;;;;;5.1;100.0;104040;;;;